V.C. Bird, Antigua

9:28 PM AST on August 29, 2014 (GMT -0400)
V C Bird International | Change Station
CLOSE
Current Station
Airport
Location: V.C. Bird,
Elevation: 46 ft
Nearby Weather Stations

Elev 46 ft 17.12 °N, 61.78 °W | Updated 28 minutes ago

Scattered Clouds
Scattered Clouds
82 °F
Feels Like 88 °F
N
9
Wind Variable Wind from East

Today
High -- | Low -- °F
--% Chance of Precip.
Yesterday
High -- | Low -- °F
Precip. -- in
5:52 AM 6:22 PM
Waxing Crescent, 18% visible
Pressure 30.04 in
Visibility 6.2 miles
Clouds Scattered Clouds 2000 ft
Heat Index 88 °F
Dew Point 73 °F
Humidity 74%
Rainfall 0.00 in
Snow Depth Not available.
UV 0 out of 12
Pollen Not available.
Air Quality Not available.
Flu Activity Not available.
METAR TAPA 300100Z 09008KT 9999 SCT020 28/23 Q1017 NOSIG

More Conditions Fewer Conditions

Pressure 30.04 in
Visibility 6.2 miles
Clouds Scattered Clouds 2000 ft
Heat Index 88 °F
Dew Point 73 °F
Humidity 74%
Rainfall 0.00 in
Snow Depth Not available.
UV 0 out of 12
Pollen Not available.
Air Quality Not available.
Flu Activity Not available.
METAR TAPA 300100Z 09008KT 9999 SCT020 28/23 Q1017 NOSIG

More Conditions Fewer Conditions

10-Day Weather Forecast

Almanac

Astronomy

Aug. 29, 2014 Rise Set
Actual Time 5:52 AM AST 6:22 PM AST
Civil Twilight 5:30 AM AST 6:44 PM AST
Nautical Twilight 5:05 AM AST 7:10 PM AST
Astronomical Twilight 4:39 AM AST 7:36 PM AST
Moon 8:59 AM AST (8/29) 8:59 PM AST (8/29)
Length of Visible Light 13h 13m
Length of Day
12h 29m
Tomorrow will be 0m 55s shorter.
Waxing Crescent, 18% of the Moon is Illuminated
Today
Waxing Crescent
Sep 2
First Quarter
Sep 8
Full
Sep 15
Last Quarter
Sep 24
New

Today's Extremes

Country Highs Country Lows

Community

WunderPhotos

Upload Photos

1,748,395 photos uploaded!

Nearby

Snow Depth

Not available.

Earthquake Activity

City Distance Mag. Time & Date
No recent earthquake activity has been reported nearby.
Minimum magnitude displayed is 2.5.

Coastal Water Temperatures

Place Temperature
No Stations Reporting

Nearby Weather Stations